createdAt,value
2022-10-15T00:00:29.835Z,9.443682
2022-10-15T00:01:29.925Z,9.443657
2022-10-15T00:02:29.836Z,9.443663
2022-10-15T00:03:29.824Z,9.443650
2022-10-15T00:04:29.839Z,9.443676
2022-10-15T00:05:29.881Z,9.443783
2022-10-15T00:06:29.812Z,9.443684
2022-10-15T00:07:29.813Z,9.443757
2022-10-15T00:08:29.876Z,9.443711
2022-10-15T00:09:29.821Z,9.443771
2022-10-15T00:10:29.805Z,9.443749
2022-10-15T00:11:29.792Z,9.443712
2022-10-15T00:12:29.765Z,9.443656
2022-10-15T00:13:29.773Z,9.443667
2022-10-15T00:14:29.757Z,9.443630
2022-10-15T00:15:29.769Z,9.443657
2022-10-15T00:16:29.801Z,9.443667
2022-10-15T00:17:29.737Z,9.443619
2022-10-15T00:18:29.761Z,9.443619
2022-10-15T00:19:29.751Z,9.443717
2022-10-15T00:20:29.714Z,9.443705
2022-10-15T00:21:29.733Z,9.443691
2022-10-15T00:22:29.721Z,9.443679
2022-10-15T00:23:29.729Z,9.443701
2022-10-15T00:24:29.757Z,9.443703
2022-10-15T00:25:29.733Z,9.443758
2022-10-15T00:26:29.772Z,9.443691
2022-10-15T00:27:29.749Z,9.443613
2022-10-15T00:28:33.424Z,9.443673
2022-10-15T00:29:29.817Z,9.443668
2022-10-15T00:30:29.662Z,9.443736
2022-10-15T00:31:29.657Z,9.443819
2022-10-15T00:32:29.728Z,9.443813
2022-10-15T00:33:29.705Z,9.443846
2022-10-15T00:34:29.651Z,9.443828
2022-10-15T00:35:29.629Z,9.443751
2022-10-15T00:36:29.662Z,9.443800
2022-10-15T00:37:29.637Z,9.443789
2022-10-15T00:38:29.660Z,9.443738
2022-10-15T00:39:29.785Z,9.443688
2022-10-15T00:40:29.613Z,9.443679
2022-10-15T00:41:29.674Z,9.443697
2022-10-15T00:42:29.625Z,9.443689
2022-10-15T00:43:29.625Z,9.443692
2022-10-15T00:44:29.629Z,9.443728
2022-10-15T00:45:29.589Z,9.443714
2022-10-15T00:46:29.597Z,9.443722
2022-10-15T00:47:29.680Z,9.443662
2022-10-15T00:48:29.553Z,9.443735
2022-10-15T00:49:29.621Z,9.443657
2022-10-15T00:50:29.573Z,9.443633
2022-10-15T00:51:29.562Z,9.443680
2022-10-15T00:52:29.562Z,9.443702
2022-10-15T00:53:29.533Z,9.443737
2022-10-15T00:54:29.556Z,9.443694
2022-10-15T00:55:29.561Z,9.443661
2022-10-15T00:56:29.546Z,9.443668
2022-10-15T00:57:29.553Z,9.443770
2022-10-15T00:58:29.513Z,9.443751
2022-10-15T00:59:29.585Z,9.443652
2022-10-15T01:00:29.518Z,9.443666
2022-10-15T01:01:29.591Z,9.443612
2022-10-15T01:02:29.515Z,9.443588
2022-10-15T01:03:29.521Z,9.443590
2022-10-15T01:04:29.646Z,9.443656
2022-10-15T01:05:29.456Z,9.443687
2022-10-15T01:06:29.450Z,9.443690
2022-10-15T01:07:29.441Z,9.443759
2022-10-15T01:08:29.450Z,9.443691
2022-10-15T01:09:29.452Z,9.443691
2022-10-15T01:10:29.433Z,9.443604
2022-10-15T01:11:29.424Z,9.443641
2022-10-15T01:12:29.425Z,9.443721
2022-10-15T01:13:29.441Z,9.443719
2022-10-15T01:14:29.410Z,9.443691
2022-10-15T01:15:29.397Z,9.443677
2022-10-15T01:16:29.378Z,9.443633
2022-10-15T01:17:29.449Z,9.443560
2022-10-15T01:18:29.377Z,9.443524
2022-10-15T01:19:29.379Z,9.443603
2022-10-15T01:20:29.384Z,9.443588
2022-10-15T01:21:29.374Z,9.443580
2022-10-15T01:22:29.376Z,9.443511
2022-10-15T01:23:29.377Z,9.443535
2022-10-15T01:24:29.352Z,9.443582
2022-10-15T01:25:29.357Z,9.443600
2022-10-15T01:26:29.336Z,9.443633
2022-10-15T01:27:29.324Z,9.443673
2022-10-15T01:28:29.390Z,9.443733
2022-10-15T01:29:29.329Z,9.443686
2022-10-15T01:30:29.295Z,9.443627
2022-10-15T01:31:29.308Z,9.443600
2022-10-15T01:32:29.299Z,9.443616
2022-10-15T01:33:29.287Z,9.443674
2022-10-15T01:34:29.291Z,9.443576
2022-10-15T01:35:29.269Z,9.443576
2022-10-15T01:36:29.274Z,9.443517
2022-10-15T01:37:29.280Z,9.443502
2022-10-15T01:38:29.265Z,9.443589
2022-10-15T01:39:29.269Z,9.443570
2022-10-15T01:40:29.254Z,9.443558
2022-10-15T01:41:29.245Z,9.443600
2022-10-15T01:42:30.221Z,9.443472
2022-10-15T01:43:29.253Z,9.443450
2022-10-15T01:44:29.237Z,9.443779
2022-10-15T01:45:29.233Z,9.443585
2022-10-15T01:46:29.223Z,9.443614
2022-10-15T01:47:29.277Z,9.443665
2022-10-15T01:48:29.215Z,9.443707
2022-10-15T01:49:29.187Z,9.443709
2022-10-15T01:50:29.207Z,9.443658
2022-10-15T01:51:29.217Z,9.443626
2022-10-15T01:53:29.173Z,9.443522
2022-10-15T01:54:29.189Z,9.443555
2022-10-15T01:55:29.176Z,9.443571
2022-10-15T01:56:29.156Z,9.443629
2022-10-15T01:57:29.165Z,9.443664
2022-10-15T01:58:29.132Z,9.443737
2022-10-15T01:59:29.124Z,9.443683
2022-10-15T02:00:29.144Z,9.443693
2022-10-15T02:01:29.213Z,9.443676
2022-10-15T02:02:29.117Z,9.443650
2022-10-15T02:03:29.105Z,9.443671
2022-10-15T02:04:29.118Z,9.443703
2022-10-15T02:05:29.110Z,9.443618
2022-10-15T02:06:29.102Z,9.443610
2022-10-15T02:07:29.080Z,9.443644
2022-10-15T02:08:29.095Z,9.443666
2022-10-15T02:09:29.079Z,9.443644
2022-10-15T02:10:29.071Z,9.443683
2022-10-15T02:11:29.083Z,9.443708
2022-10-15T02:12:29.066Z,9.443682
2022-10-15T02:13:29.054Z,9.443681
2022-10-15T02:14:29.050Z,9.443738
2022-10-15T02:15:29.071Z,9.443789
2022-10-15T02:16:29.060Z,9.443720
2022-10-15T02:17:29.030Z,9.443693
2022-10-15T02:18:29.017Z,9.443674
2022-10-15T02:19:29.018Z,9.443645
2022-10-15T02:20:29.033Z,9.443546
2022-10-15T02:21:29.051Z,9.443601
2022-10-15T02:22:29.001Z,9.443585
2022-10-15T02:23:28.994Z,9.443736
2022-10-15T02:24:28.987Z,9.443714
2022-10-15T02:25:28.986Z,9.443714
2022-10-15T02:26:29.002Z,9.443697
2022-10-15T02:27:28.975Z,9.443791
2022-10-15T02:28:29.024Z,9.443773
2022-10-15T02:29:28.998Z,9.443788
2022-10-15T02:30:28.938Z,9.443740
2022-10-15T02:31:28.996Z,9.443751
2022-10-15T02:32:28.939Z,9.443725
2022-10-15T02:33:28.934Z,9.443733
2022-10-15T02:34:28.924Z,9.443713
2022-10-15T02:35:28.917Z,9.443740
2022-10-15T02:36:28.958Z,9.443741
2022-10-15T02:37:28.912Z,9.443729
2022-10-15T02:38:28.902Z,9.443737
2022-10-15T02:39:28.907Z,9.443733
2022-10-15T02:40:28.878Z,9.443733
2022-10-15T02:41:28.918Z,9.443769
2022-10-15T02:42:28.898Z,9.443750
2022-10-15T02:43:28.886Z,9.443699
2022-10-15T02:44:28.863Z,9.443678
2022-10-15T02:45:28.857Z,9.443707
2022-10-15T02:46:29.114Z,9.443727
2022-10-15T02:47:28.849Z,9.443701
2022-10-15T02:48:28.852Z,9.443720
2022-10-15T02:49:28.834Z,9.443702
2022-10-15T02:50:28.854Z,9.443739
2022-10-15T02:51:28.814Z,9.443747
2022-10-15T02:52:28.834Z,9.443832
2022-10-15T02:53:28.833Z,9.443777
2022-10-15T02:54:28.842Z,9.443795
2022-10-15T02:55:28.789Z,9.443715
2022-10-15T02:57:28.805Z,9.443810
2022-10-15T02:58:28.788Z,9.443913
2022-10-15T02:59:28.799Z,9.443585
2022-10-15T03:00:28.766Z,9.443733
2022-10-15T03:01:28.819Z,9.443777
2022-10-15T03:02:28.822Z,9.443712
2022-10-15T03:03:28.772Z,9.443650
2022-10-15T03:04:28.761Z,9.443717
2022-10-15T03:06:28.728Z,9.443726
2022-10-15T03:07:28.750Z,9.443754
2022-10-15T03:08:28.753Z,9.443788
2022-10-15T03:09:28.726Z,9.443894
2022-10-15T03:10:28.721Z,9.443770
2022-10-15T03:11:28.734Z,9.443647
2022-10-15T03:12:28.728Z,9.443678
2022-10-15T03:13:28.713Z,9.443663
2022-10-15T03:15:28.695Z,9.443697
2022-10-15T03:16:28.664Z,9.443651
2022-10-15T03:17:28.675Z,9.443671
2022-10-15T03:18:28.680Z,9.443709
2022-10-15T03:19:28.647Z,9.443663
2022-10-15T03:20:28.686Z,9.443655
2022-10-15T03:21:28.652Z,9.443650
2022-10-15T03:22:28.663Z,9.443636
2022-10-15T03:23:28.649Z,9.443584
2022-10-15T03:24:29.575Z,9.443581
2022-10-15T03:25:28.627Z,9.443625
2022-10-15T03:26:28.621Z,9.443624
2022-10-15T03:27:28.624Z,9.443666
2022-10-15T03:28:28.633Z,9.443775
2022-10-15T03:29:28.588Z,9.443749
2022-10-15T03:30:28.603Z,9.443709
2022-10-15T03:31:28.589Z,9.443616
2022-10-15T03:32:29.704Z,9.443663
2022-10-15T03:33:28.580Z,9.443753
2022-10-15T03:34:28.580Z,9.443655
2022-10-15T03:35:28.576Z,9.443666
2022-10-15T03:36:28.571Z,9.443673
2022-10-15T03:37:28.531Z,9.443666
2022-10-15T03:38:28.535Z,9.443715
2022-10-15T03:39:28.520Z,9.443720
2022-10-15T03:40:28.536Z,9.443639
2022-10-15T03:41:28.519Z,9.443612
2022-10-15T03:42:28.514Z,9.443604
2022-10-15T03:43:28.511Z,9.443613
2022-10-15T03:44:28.543Z,9.443610
2022-10-15T03:45:28.524Z,9.443563
2022-10-15T03:46:28.499Z,9.443634
2022-10-15T03:47:28.488Z,9.443691
2022-10-15T03:48:28.484Z,9.443608
2022-10-15T03:49:28.480Z,9.443583
2022-10-15T03:50:28.472Z,9.443675
2022-10-15T03:51:30.789Z,9.443599
2022-10-15T03:52:30.571Z,9.443637
2022-10-15T03:53:28.448Z,9.443624
2022-10-15T03:54:28.447Z,9.443609
2022-10-15T03:55:28.471Z,9.443644
2022-10-15T03:56:28.451Z,9.443638
2022-10-15T03:57:28.436Z,9.443619
2022-10-15T03:58:28.428Z,9.443729
2022-10-15T03:59:28.443Z,9.443769
2022-10-15T04:00:28.418Z,9.443680
2022-10-15T04:01:28.475Z,9.443645
2022-10-15T04:02:28.406Z,9.443440
2022-10-15T04:03:28.411Z,9.443628
2022-10-15T04:04:28.392Z,9.443745
2022-10-15T04:05:28.382Z,9.443753
2022-10-15T04:06:28.418Z,9.443852
2022-10-15T04:07:28.393Z,9.443745
2022-10-15T04:08:28.365Z,9.443778
2022-10-15T04:09:28.353Z,9.443780
2022-10-15T04:10:28.361Z,9.443961
2022-10-15T04:11:28.357Z,9.443907
2022-10-15T04:12:28.355Z,9.443799
2022-10-15T04:13:28.332Z,9.443770
2022-10-15T04:14:28.329Z,9.443748
2022-10-15T04:15:28.338Z,9.443761
2022-10-15T04:16:28.324Z,9.443757
2022-10-15T04:18:01.782Z,9.443753
2022-10-15T04:18:28.327Z,9.443778
2022-10-15T04:19:28.294Z,9.443767
2022-10-15T04:20:28.298Z,9.443742
2022-10-15T04:21:28.283Z,9.443735
2022-10-15T04:22:28.307Z,9.443687
2022-10-15T04:23:28.323Z,9.443724
2022-10-15T04:24:28.271Z,9.443662
2022-10-15T04:25:28.276Z,9.443739
2022-10-15T04:26:28.304Z,9.443710
2022-10-15T04:27:28.260Z,9.443776
2022-10-15T04:28:28.347Z,9.443746
2022-10-15T04:29:28.236Z,9.443677
2022-10-15T04:30:28.263Z,9.443788
2022-10-15T04:31:28.232Z,9.443743
2022-10-15T04:32:28.220Z,9.443762
2022-10-15T04:33:28.231Z,9.443705
2022-10-15T04:34:28.299Z,9.443698
2022-10-15T04:35:28.208Z,9.443671
2022-10-15T04:36:28.199Z,9.443693
2022-10-15T04:37:28.194Z,9.443693
2022-10-15T04:38:28.210Z,9.443738
2022-10-15T04:39:28.199Z,9.443671
2022-10-15T04:40:28.179Z,9.443705
2022-10-15T04:41:28.167Z,9.443682
2022-10-15T04:42:28.163Z,9.443644
2022-10-15T04:43:29.151Z,9.443668
2022-10-15T04:44:28.155Z,9.443647
2022-10-15T04:45:28.141Z,9.443692
2022-10-15T04:46:28.158Z,9.443736
2022-10-15T04:47:28.127Z,9.443723
2022-10-15T04:48:28.132Z,9.443710
2022-10-15T04:49:28.131Z,9.443708
2022-10-15T04:50:28.134Z,9.443692
2022-10-15T04:51:28.115Z,9.443686
2022-10-15T04:52:28.110Z,9.443688
2022-10-15T04:53:29.643Z,9.443699
2022-10-15T04:55:28.111Z,9.443682
2022-10-15T04:56:28.085Z,9.443704
2022-10-15T04:57:28.089Z,9.443717
2022-10-15T04:58:28.071Z,9.443719
2022-10-15T04:59:28.064Z,9.443722
2022-10-15T05:00:28.075Z,9.443720
2022-10-15T05:01:28.055Z,9.443727
2022-10-15T05:02:28.119Z,9.443764
2022-10-15T05:03:28.077Z,9.443737
2022-10-15T05:04:28.039Z,9.443732
2022-10-15T05:05:28.028Z,9.443754
2022-10-15T05:06:28.034Z,9.443736
2022-10-15T05:07:28.025Z,9.443747
2022-10-15T05:08:28.019Z,9.443739
2022-10-15T05:09:28.003Z,9.443727
2022-10-15T05:10:27.999Z,9.443743
2022-10-15T05:11:28.011Z,9.443777
2022-10-15T05:12:28.003Z,9.443698
2022-10-15T05:13:27.986Z,9.443718
2022-10-15T05:14:27.978Z,9.443719
2022-10-15T05:15:27.971Z,9.443706
2022-10-15T05:16:28.089Z,9.443710
2022-10-15T05:17:27.952Z,9.443841
2022-10-15T05:18:27.947Z,9.443760
2022-10-15T05:19:27.953Z,9.443746
2022-10-15T05:20:27.927Z,9.443842
2022-10-15T05:21:27.931Z,9.443799
2022-10-15T05:22:27.942Z,9.443713
2022-10-15T05:23:27.913Z,9.443726
2022-10-15T05:24:27.943Z,9.443771
2022-10-15T05:25:27.926Z,9.443849
2022-10-15T05:26:27.909Z,9.443840
2022-10-15T05:27:27.909Z,9.443752
2022-10-15T05:28:27.906Z,9.443776
2022-10-15T05:29:27.894Z,9.443871
2022-10-15T05:30:27.872Z,9.443955
2022-10-15T05:31:27.870Z,9.443725
2022-10-15T05:32:27.888Z,9.443794
2022-10-15T05:33:27.866Z,9.443917
2022-10-15T05:34:27.849Z,9.443977
2022-10-15T05:35:27.905Z,9.444006
2022-10-15T05:36:27.848Z,9.443866
2022-10-15T05:37:27.944Z,9.443945
2022-10-15T05:38:27.830Z,9.443845
2022-10-15T05:39:27.822Z,9.443920
2022-10-15T05:40:27.813Z,9.443979
2022-10-15T05:41:27.813Z,9.443789
2022-10-15T05:42:27.796Z,9.443773
2022-10-15T05:43:27.821Z,9.443803
2022-10-15T05:44:27.832Z,9.443728
2022-10-15T05:45:27.792Z,9.443676
2022-10-15T05:46:27.777Z,9.443778
2022-10-15T05:47:27.776Z,9.443759
2022-10-15T05:48:27.788Z,9.443740
2022-10-15T05:49:27.773Z,9.443749
2022-10-15T05:50:27.760Z,9.443766
2022-10-15T05:51:27.753Z,9.443769
2022-10-15T05:52:27.751Z,9.443733
2022-10-15T05:53:27.742Z,9.443720
2022-10-15T05:54:27.746Z,9.443730
2022-10-15T05:55:27.729Z,9.443664
2022-10-15T05:56:27.729Z,9.443706
2022-10-15T05:57:28.564Z,9.443752
2022-10-15T05:58:30.823Z,9.443779
2022-10-15T05:59:28.717Z,9.443750
2022-10-15T06:00:27.717Z,9.443725
2022-10-15T06:01:27.730Z,9.443716
2022-10-15T06:02:28.427Z,9.443770
2022-10-15T06:03:28.081Z,9.443759
2022-10-15T06:04:29.529Z,9.443757
2022-10-15T06:05:27.710Z,9.443769
2022-10-15T06:06:28.759Z,9.443784
2022-10-15T06:07:27.836Z,9.443758
2022-10-15T06:08:27.688Z,9.443745
2022-10-15T06:09:27.659Z,9.443747
2022-10-15T06:10:27.768Z,9.443744
2022-10-15T06:11:27.639Z,9.443737
2022-10-15T06:12:27.971Z,9.443752
2022-10-15T06:13:27.660Z,9.443743
2022-10-15T06:14:27.626Z,9.443735
2022-10-15T06:15:27.641Z,9.443726
2022-10-15T06:16:27.618Z,9.443692
2022-10-15T06:17:27.650Z,9.443714
2022-10-15T06:18:27.611Z,9.443727
2022-10-15T06:19:27.622Z,9.443708
2022-10-15T06:20:27.622Z,9.443702
2022-10-15T06:21:27.620Z,9.443721
2022-10-15T06:22:27.634Z,9.443707
2022-10-15T06:23:27.631Z,9.443732
2022-10-15T06:24:27.568Z,9.443696
2022-10-15T06:25:27.578Z,9.443719
2022-10-15T06:26:27.575Z,9.443677
2022-10-15T06:27:27.616Z,9.443663
2022-10-15T06:28:27.665Z,9.443751
2022-10-15T06:29:27.539Z,9.443784
2022-10-15T06:30:27.590Z,9.443736
2022-10-15T06:31:27.529Z,9.443715
2022-10-15T06:32:27.565Z,9.443711
2022-10-15T06:33:27.526Z,9.443729
2022-10-15T06:34:27.496Z,9.443754
2022-10-15T06:35:28.504Z,9.443756
2022-10-15T06:36:27.572Z,9.443762
2022-10-15T06:37:27.519Z,9.443750
2022-10-15T06:38:27.500Z,9.443668
2022-10-15T06:39:27.669Z,9.443699
2022-10-15T06:40:27.473Z,9.443719
2022-10-15T06:41:27.721Z,9.443738
2022-10-15T06:42:27.517Z,9.443736
2022-10-15T06:43:29.823Z,9.443718
2022-10-15T06:44:28.529Z,9.443740
2022-10-15T06:45:27.597Z,9.443738
2022-10-15T06:46:27.448Z,9.443749
2022-10-15T06:47:27.493Z,9.443712
2022-10-15T06:48:27.443Z,9.443720
2022-10-15T06:49:27.427Z,9.443719
2022-10-15T06:50:27.413Z,9.443714
2022-10-15T06:51:27.485Z,9.443696
2022-10-15T06:52:27.574Z,9.443724
2022-10-15T06:53:28.147Z,9.443691
2022-10-15T06:54:27.453Z,9.443710
2022-10-15T06:55:27.385Z,9.443691
2022-10-15T06:56:27.377Z,9.443667
2022-10-15T06:57:27.389Z,9.443702
2022-10-15T06:58:27.576Z,9.443714
2022-10-15T06:59:27.405Z,9.443760
2022-10-15T07:00:27.500Z,9.443817
2022-10-15T07:01:27.350Z,9.443764
2022-10-15T07:02:27.343Z,9.443765
2022-10-15T07:03:27.517Z,9.443759
2022-10-15T07:04:27.359Z,9.443714
2022-10-15T07:05:27.401Z,9.443726
2022-10-15T07:06:27.387Z,9.443734
2022-10-15T07:07:27.327Z,9.443773
2022-10-15T07:08:27.322Z,9.443832
2022-10-15T07:09:27.380Z,9.443787
2022-10-15T07:10:27.313Z,9.443732
2022-10-15T07:11:27.286Z,9.443701
2022-10-15T07:12:27.383Z,9.443842
2022-10-15T07:13:27.318Z,9.443714
2022-10-15T07:14:27.316Z,9.443695
2022-10-15T07:15:28.183Z,9.443787
2022-10-15T07:16:27.265Z,9.443727
2022-10-15T07:17:27.364Z,9.443767
2022-10-15T07:18:27.300Z,9.443804
2022-10-15T07:19:27.227Z,9.443769
2022-10-15T07:20:27.291Z,9.443758
2022-10-15T07:21:27.246Z,9.443772
2022-10-15T07:22:27.218Z,9.443783
2022-10-15T07:23:27.987Z,9.443810
2022-10-15T07:24:27.232Z,9.443802
2022-10-15T07:25:27.247Z,9.443798
2022-10-15T07:26:27.288Z,9.443786
2022-10-15T07:27:27.197Z,9.443882
2022-10-15T07:28:27.326Z,9.443859
2022-10-15T07:29:27.276Z,9.443851
2022-10-15T07:30:27.160Z,9.443823
2022-10-15T07:31:27.179Z,9.443786
2022-10-15T07:32:27.152Z,9.443712
2022-10-15T07:33:27.163Z,9.443793
2022-10-15T07:34:27.162Z,9.443743
2022-10-15T07:35:27.135Z,9.443737
2022-10-15T07:36:27.154Z,9.443770
2022-10-15T07:37:27.109Z,9.443692
2022-10-15T07:38:28.077Z,9.443743
2022-10-15T07:39:27.103Z,9.443743
2022-10-15T07:40:27.249Z,9.443811
2022-10-15T07:41:27.100Z,9.443849
2022-10-15T07:42:27.150Z,9.443723
2022-10-15T07:43:27.168Z,9.443714
2022-10-15T07:44:27.066Z,9.443731
2022-10-15T07:45:27.066Z,9.443797
2022-10-15T07:46:27.158Z,9.443832
2022-10-15T07:47:28.164Z,9.443880
2022-10-15T07:48:27.124Z,9.443813
2022-10-15T07:49:27.044Z,9.443804
2022-10-15T07:50:29.317Z,9.443786
2022-10-15T07:51:29.028Z,9.443751
2022-10-15T07:52:27.394Z,9.443766
2022-10-15T07:53:27.075Z,9.443820
2022-10-15T07:54:27.038Z,9.443824
2022-10-15T07:55:27.034Z,9.443784
2022-10-15T07:56:27.030Z,9.443789
2022-10-15T07:57:26.994Z,9.443830
2022-10-15T07:58:27.183Z,9.443784
2022-10-15T07:59:27.099Z,9.443819
2022-10-15T08:00:27.072Z,9.443786
2022-10-15T08:01:27.011Z,9.443784
2022-10-15T08:02:27.104Z,9.443765
2022-10-15T08:03:26.958Z,9.443768
2022-10-15T08:04:26.979Z,9.443760
2022-10-15T08:05:26.947Z,9.443776
2022-10-15T08:06:26.938Z,9.443774
2022-10-15T08:07:26.957Z,9.443763
2022-10-15T08:08:26.942Z,9.443774
2022-10-15T08:09:26.922Z,9.443727
2022-10-15T08:10:26.931Z,9.443716
2022-10-15T08:11:26.943Z,9.443757
2022-10-15T08:12:27.152Z,9.443789
2022-10-15T08:13:26.888Z,9.443816
2022-10-15T08:14:26.937Z,9.443798
2022-10-15T08:15:26.882Z,9.443775
2022-10-15T08:16:26.905Z,9.443757
2022-10-15T08:17:26.869Z,9.443778
2022-10-15T08:18:26.846Z,9.443821
2022-10-15T08:19:26.865Z,9.443785
2022-10-15T08:20:26.846Z,9.443735
2022-10-15T08:21:26.864Z,9.443741
2022-10-15T08:22:26.957Z,9.443778
2022-10-15T08:23:26.829Z,9.443811
2022-10-15T08:24:26.842Z,9.443792
2022-10-15T08:25:26.816Z,9.443727
2022-10-15T08:26:26.849Z,9.443726
2022-10-15T08:27:27.030Z,9.443800
2022-10-15T08:28:28.213Z,9.443930
2022-10-15T08:29:26.789Z,9.443944
2022-10-15T08:30:26.782Z,9.443791
2022-10-15T08:31:26.795Z,9.443742
2022-10-15T08:32:26.924Z,9.443734
2022-10-15T08:33:26.761Z,9.443715
2022-10-15T08:34:26.758Z,9.443693
2022-10-15T08:35:26.760Z,9.443701
2022-10-15T08:36:26.766Z,9.443727
2022-10-15T08:37:26.752Z,9.443726
2022-10-15T08:38:26.772Z,9.443694
2022-10-15T08:39:26.718Z,9.443675
2022-10-15T08:40:26.734Z,9.443717
2022-10-15T08:41:26.765Z,9.443746
2022-10-15T08:42:27.067Z,9.443776
2022-10-15T08:43:26.854Z,9.443695
2022-10-15T08:44:26.835Z,9.443702
2022-10-15T08:45:26.697Z,9.443658
2022-10-15T08:46:26.688Z,9.443740
2022-10-15T08:47:26.998Z,9.443679
2022-10-15T08:48:26.668Z,9.443727
2022-10-15T08:49:26.671Z,9.443785
2022-10-15T08:50:26.747Z,9.443777
2022-10-15T08:51:26.657Z,9.443759
2022-10-15T08:52:26.657Z,9.443752
2022-10-15T08:53:26.644Z,9.443707
2022-10-15T08:54:26.632Z,9.443645
2022-10-15T08:55:26.634Z,9.443640
2022-10-15T08:56:26.664Z,9.443573
2022-10-15T08:57:26.917Z,9.443637
2022-10-15T08:58:26.628Z,9.443688
2022-10-15T08:59:26.604Z,9.443746
2022-10-15T09:00:26.638Z,9.443740
2022-10-15T09:01:26.588Z,9.443744
2022-10-15T09:02:26.644Z,9.443709
2022-10-15T09:03:26.653Z,9.443759
2022-10-15T09:05:26.581Z,9.443680
2022-10-15T09:06:26.565Z,9.443681
2022-10-15T09:07:26.740Z,9.443696
2022-10-15T09:08:26.540Z,9.443674
2022-10-15T09:09:26.564Z,9.443635
2022-10-15T09:10:26.528Z,9.443563
2022-10-15T09:11:26.568Z,9.443567
2022-10-15T09:12:26.549Z,9.443665
2022-10-15T09:13:27.773Z,9.443681
2022-10-15T09:14:26.513Z,9.443697
2022-10-15T09:15:27.865Z,9.443696
2022-10-15T09:16:26.516Z,9.443732
2022-10-15T09:17:26.985Z,9.443746
2022-10-15T09:18:26.516Z,9.443748
2022-10-15T09:19:26.508Z,9.443663
2022-10-15T09:20:26.479Z,9.443725
2022-10-15T09:21:26.519Z,9.443731
2022-10-15T09:22:26.483Z,9.443706
2022-10-15T09:23:26.483Z,9.443701
2022-10-15T09:24:26.467Z,9.443694
2022-10-15T09:25:28.610Z,9.443676
2022-10-15T09:26:26.493Z,9.443697
2022-10-15T09:27:26.664Z,9.443730
2022-10-15T09:28:26.788Z,9.443737
2022-10-15T09:29:26.442Z,9.443627
2022-10-15T09:30:26.467Z,9.443658
2022-10-15T09:31:27.097Z,9.443684
2022-10-15T09:32:26.805Z,9.443631
2022-10-15T09:33:26.425Z,9.443535
2022-10-15T09:34:26.514Z,9.443550
2022-10-15T09:35:26.409Z,9.443612
2022-10-15T09:36:26.391Z,9.443691
2022-10-15T09:37:26.442Z,9.443683
2022-10-15T09:38:26.431Z,9.443675
2022-10-15T09:39:27.423Z,9.443660
2022-10-15T09:40:26.382Z,9.443634
2022-10-15T09:41:26.394Z,9.443617
2022-10-15T09:42:26.848Z,9.443736
2022-10-15T09:43:26.519Z,9.443694
2022-10-15T09:44:26.367Z,9.443707
2022-10-15T09:45:26.344Z,9.443694
2022-10-15T09:46:26.367Z,9.443780
2022-10-15T09:47:26.358Z,9.443727
2022-10-15T09:48:26.333Z,9.443696
2022-10-15T09:49:26.398Z,9.443754
2022-10-15T09:50:26.318Z,9.443707
2022-10-15T09:51:26.383Z,9.443702
2022-10-15T09:52:26.745Z,9.443629
2022-10-15T09:53:28.250Z,9.443586
2022-10-15T09:54:27.298Z,9.443717
2022-10-15T09:55:26.347Z,9.443589
2022-10-15T09:56:26.398Z,9.443692
2022-10-15T09:57:26.282Z,9.443718
2022-10-15T09:58:26.279Z,9.443776
2022-10-15T09:59:26.328Z,9.443703
2022-10-15T10:00:26.264Z,9.443734
2022-10-15T10:01:26.311Z,9.443667
2022-10-15T10:02:26.580Z,9.443755
2022-10-15T10:03:26.238Z,9.443733
2022-10-15T10:04:26.230Z,9.443842
2022-10-15T10:05:26.214Z,9.443744
2022-10-15T10:06:26.262Z,9.443816
2022-10-15T10:07:26.202Z,9.443834
2022-10-15T10:08:26.201Z,9.443758
2022-10-15T10:09:27.289Z,9.443690
2022-10-15T10:10:26.188Z,9.443671
2022-10-15T10:11:26.186Z,9.443767
2022-10-15T10:12:26.660Z,9.443646
2022-10-15T10:13:26.204Z,9.443583
2022-10-15T10:14:26.178Z,9.443429
2022-10-15T10:15:26.162Z,9.443763
2022-10-15T10:16:26.208Z,9.443824
2022-10-15T10:17:26.153Z,9.443856
2022-10-15T10:18:32.684Z,9.443972
2022-10-15T10:19:26.128Z,9.443773
2022-10-15T10:20:26.161Z,9.443678
2022-10-15T10:21:26.144Z,9.443686
2022-10-15T10:22:27.159Z,9.443613
2022-10-15T10:23:26.100Z,9.443521
2022-10-15T10:24:26.109Z,9.443543
2022-10-15T10:25:26.096Z,9.443249
2022-10-15T10:26:26.172Z,9.443824
2022-10-15T10:27:26.362Z,9.443706
2022-10-15T10:28:26.166Z,9.443542
2022-10-15T10:29:34.804Z,9.443421
2022-10-15T10:30:28.068Z,9.443170
2022-10-15T10:31:26.079Z,9.443522
2022-10-15T10:32:26.117Z,9.443566
2022-10-15T10:33:26.084Z,9.443743
2022-10-15T10:34:26.048Z,9.443954
2022-10-15T10:35:26.033Z,9.444093
2022-10-15T10:36:26.035Z,9.444061
2022-10-15T10:37:26.508Z,9.444092
2022-10-15T10:38:26.016Z,9.444103
2022-10-15T10:39:26.003Z,9.443703
2022-10-15T10:40:26.085Z,9.443684
2022-10-15T10:41:26.007Z,9.443773
2022-10-15T10:42:26.003Z,9.443804
2022-10-15T10:43:25.987Z,9.443726
2022-10-15T10:44:25.984Z,9.443687
2022-10-15T10:46:26.072Z,9.443706
2022-10-15T10:47:26.310Z,9.443675
2022-10-15T10:48:25.953Z,9.443632
2022-10-15T10:49:25.959Z,9.443661
2022-10-15T10:50:26.694Z,9.443736
2022-10-15T10:51:25.963Z,9.443738
2022-10-15T10:52:25.946Z,9.443669
2022-10-15T10:53:26.670Z,9.443686
2022-10-15T10:54:25.958Z,9.443682
2022-10-15T10:55:25.930Z,9.443743
2022-10-15T10:56:25.924Z,9.443778
2022-10-15T10:57:26.301Z,9.443801
2022-10-15T10:58:27.183Z,9.443707
2022-10-15T10:59:25.920Z,9.443729
2022-10-15T11:00:25.976Z,9.443744
2022-10-15T11:01:25.903Z,9.443736
2022-10-15T11:02:25.887Z,9.443742
2022-10-15T11:03:25.907Z,9.443760
2022-10-15T11:04:25.877Z,9.443752
2022-10-15T11:05:25.867Z,9.443752
2022-10-15T11:06:25.862Z,9.443804
2022-10-15T11:07:26.270Z,9.443867
2022-10-15T11:08:25.874Z,9.443622
2022-10-15T11:09:25.846Z,9.443665
2022-10-15T11:10:25.838Z,9.443726
2022-10-15T11:11:25.834Z,9.443700
2022-10-15T11:12:25.835Z,9.443731
2022-10-15T11:13:27.664Z,9.443684
2022-10-15T11:14:26.818Z,9.443654
2022-10-15T11:15:25.806Z,9.443605
2022-10-15T11:16:25.806Z,9.443644
2022-10-15T11:17:26.124Z,9.443638
2022-10-15T11:18:25.810Z,9.443751
2022-10-15T11:19:54.645Z,9.443670
2022-10-15T11:20:39.023Z,9.443785
2022-10-15T11:21:27.777Z,9.443749
2022-10-15T11:22:25.785Z,9.443687
2022-10-15T11:23:27.346Z,9.443794
2022-10-15T11:24:26.025Z,9.443680
2022-10-15T11:25:25.762Z,9.443672
2022-10-15T11:26:25.747Z,9.443673
2022-10-15T11:27:25.866Z,9.443688
2022-10-15T11:28:25.787Z,9.443700
2022-10-15T11:29:25.723Z,9.443704
2022-10-15T11:30:25.741Z,9.443683
2022-10-15T11:31:25.745Z,9.443682
2022-10-15T11:32:26.213Z,9.443687
2022-10-15T11:33:26.701Z,9.443655
2022-10-15T11:34:25.702Z,9.443671
2022-10-15T11:35:48.357Z,9.443651
2022-10-15T11:36:27.682Z,9.443656
2022-10-15T11:37:25.938Z,9.443744
2022-10-15T11:38:25.690Z,9.443779
2022-10-15T11:39:25.666Z,9.443842
2022-10-15T11:40:25.703Z,9.443735
2022-10-15T11:41:26.136Z,9.443744
2022-10-15T11:42:26.155Z,9.443713
2022-10-15T11:43:25.644Z,9.443690
2022-10-15T11:44:25.637Z,9.443637
2022-10-15T11:45:25.651Z,9.443757
2022-10-15T11:46:25.713Z,9.443822
2022-10-15T11:47:25.664Z,9.443748
2022-10-15T11:48:25.623Z,9.443743
2022-10-15T11:49:25.688Z,9.443707
2022-10-15T11:50:25.594Z,9.443856
2022-10-15T11:51:25.650Z,9.443831